sensor_id;sensor_type;location;lat;lon;timestamp;temperature;humidity
46364;DHT22;32071;49.036;9.344;2023-10-09T00:00:10;11.30;99.90
46364;DHT22;32071;49.036;9.344;2023-10-09T00:02:54;11.30;99.90
46364;DHT22;32071;49.036;9.344;2023-10-09T00:05:19;11.30;99.90
46364;DHT22;32071;49.036;9.344;2023-10-09T00:07:49;11.30;99.90
46364;DHT22;32071;49.036;9.344;2023-10-09T00:10:15;11.20;99.90
46364;DHT22;32071;49.036;9.344;2023-10-09T00:12:43;11.20;99.90
46364;DHT22;32071;49.036;9.344;2023-10-09T00:15:09;11.20;99.90
46364;DHT22;32071;49.036;9.344;2023-10-09T00:17:36;11.20;99.90
46364;DHT22;32071;49.036;9.344;2023-10-09T00:20:03;11.20;99.90
46364;DHT22;32071;49.036;9.344;2023-10-09T00:22:43;11.20;99.90
46364;DHT22;32071;49.036;9.344;2023-10-09T00:25:12;11.20;99.90
46364;DHT22;32071;49.036;9.344;2023-10-09T00:27:41;11.20;99.90
46364;DHT22;32071;49.036;9.344;2023-10-09T00:30:18;11.20;99.90
46364;DHT22;32071;49.036;9.344;2023-10-09T00:32:45;11.30;99.90
46364;DHT22;32071;49.036;9.344;2023-10-09T00:35:24;11.40;99.90
46364;DHT22;32071;49.036;9.344;2023-10-09T00:38:07;11.40;99.90
46364;DHT22;32071;49.036;9.344;2023-10-09T00:40:45;11.30;99.90
46364;DHT22;32071;49.036;9.344;2023-10-09T00:43:15;11.30;99.90
46364;DHT22;32071;49.036;9.344;2023-10-09T00:45:43;11.30;99.90
46364;DHT22;32071;49.036;9.344;2023-10-09T00:48:10;11.40;99.90
46364;DHT22;32071;49.036;9.344;2023-10-09T00:50:39;11.40;99.90
46364;DHT22;32071;49.036;9.344;2023-10-09T00:53:12;11.40;99.90
46364;DHT22;32071;49.036;9.344;2023-10-09T00:55:38;11.40;99.90
46364;DHT22;32071;49.036;9.344;2023-10-09T00:58:12;11.30;99.90
46364;DHT22;32071;49.036;9.344;2023-10-09T01:00:40;11.30;99.90
46364;DHT22;32071;49.036;9.344;2023-10-09T01:03:06;11.30;99.90
46364;DHT22;32071;49.036;9.344;2023-10-09T01:05:56;11.30;99.90
46364;DHT22;32071;49.036;9.344;2023-10-09T01:08:40;11.30;99.90
46364;DHT22;32071;49.036;9.344;2023-10-09T01:11:06;11.30;99.90
46364;DHT22;32071;49.036;9.344;2023-10-09T01:13:40;11.30;99.90
46364;DHT22;32071;49.036;9.344;2023-10-09T01:16:23;11.30;99.90
46364;DHT22;32071;49.036;9.344;2023-10-09T01:18:54;11.30;99.90
46364;DHT22;32071;49.036;9.344;2023-10-09T01:21:22;11.30;99.90
46364;DHT22;32071;49.036;9.344;2023-10-09T01:23:57;11.30;99.90
46364;DHT22;32071;49.036;9.344;2023-10-09T01:28:59;11.40;99.90
46364;DHT22;32071;49.036;9.344;2023-10-09T01:31:25;11.40;99.90
46364;DHT22;32071;49.036;9.344;2023-10-09T01:34:03;11.40;99.90
46364;DHT22;32071;49.036;9.344;2023-10-09T01:36:38;11.40;99.90
46364;DHT22;32071;49.036;9.344;2023-10-09T01:39:05;11.40;99.90
46364;DHT22;32071;49.036;9.344;2023-10-09T01:41:54;11.40;99.90
46364;DHT22;32071;49.036;9.344;2023-10-09T01:44:27;11.40;99.90
46364;DHT22;32071;49.036;9.344;2023-10-09T01:46:55;11.40;99.90
46364;DHT22;32071;49.036;9.344;2023-10-09T01:49:25;11.40;99.90
46364;DHT22;32071;49.036;9.344;2023-10-09T01:51:57;11.40;99.90
46364;DHT22;32071;49.036;9.344;2023-10-09T01:54:29;11.40;99.90
46364;DHT22;32071;49.036;9.344;2023-10-09T01:57:07;11.40;99.90
46364;DHT22;32071;49.036;9.344;2023-10-09T01:59:43;11.50;99.90
46364;DHT22;32071;49.036;9.344;2023-10-09T02:02:10;11.50;99.90
46364;DHT22;32071;49.036;9.344;2023-10-09T02:04:57;11.50;99.90
46364;DHT22;32071;49.036;9.344;2023-10-09T02:07:31;11.50;99.90
46364;DHT22;32071;49.036;9.344;2023-10-09T02:10:13;11.50;99.90
46364;DHT22;32071;49.036;9.344;2023-10-09T02:12:56;11.50;99.90
46364;DHT22;32071;49.036;9.344;2023-10-09T02:15:29;11.50;99.90
46364;DHT22;32071;49.036;9.344;2023-10-09T02:18:11;11.50;99.90
46364;DHT22;32071;49.036;9.344;2023-10-09T02:20:51;11.50;99.90
46364;DHT22;32071;49.036;9.344;2023-10-09T02:23:27;11.50;99.90
46364;DHT22;32071;49.036;9.344;2023-10-09T02:26:07;11.50;99.90
46364;DHT22;32071;49.036;9.344;2023-10-09T02:28:35;11.50;99.90
46364;DHT22;32071;49.036;9.344;2023-10-09T02:31:10;11.60;99.90
46364;DHT22;32071;49.036;9.344;2023-10-09T02:33:36;11.50;99.90
46364;DHT22;32071;49.036;9.344;2023-10-09T02:36:05;11.60;99.90
46364;DHT22;32071;49.036;9.344;2023-10-09T02:38:31;11.60;99.90
46364;DHT22;32071;49.036;9.344;2023-10-09T02:41:02;11.60;99.90
46364;DHT22;32071;49.036;9.344;2023-10-09T02:43:33;11.60;99.90
46364;DHT22;32071;49.036;9.344;2023-10-09T02:46:17;11.50;99.90
46364;DHT22;32071;49.036;9.344;2023-10-09T02:48:44;11.60;99.90
46364;DHT22;32071;49.036;9.344;2023-10-09T02:51:13;11.50;99.90
46364;DHT22;32071;49.036;9.344;2023-10-09T02:54:01;11.50;99.90
46364;DHT22;32071;49.036;9.344;2023-10-09T02:56:45;11.60;99.90
46364;DHT22;32071;49.036;9.344;2023-10-09T02:59:14;11.60;99.90
46364;DHT22;32071;49.036;9.344;2023-10-09T03:01:40;11.60;99.90
46364;DHT22;32071;49.036;9.344;2023-10-09T03:04:06;11.70;99.90
46364;DHT22;32071;49.036;9.344;2023-10-09T03:06:36;11.70;99.90
46364;DHT22;32071;49.036;9.344;2023-10-09T03:09:05;11.70;99.90
46364;DHT22;32071;49.036;9.344;2023-10-09T03:11:45;11.70;99.90
46364;DHT22;32071;49.036;9.344;2023-10-09T03:14:12;11.70;99.90
46364;DHT22;32071;49.036;9.344;2023-10-09T03:16:38;11.70;99.90
46364;DHT22;32071;49.036;9.344;2023-10-09T03:19:03;11.70;99.90
46364;DHT22;32071;49.036;9.344;2023-10-09T03:21:29;11.70;99.90
46364;DHT22;32071;49.036;9.344;2023-10-09T03:23:55;11.70;99.90
46364;DHT22;32071;49.036;9.344;2023-10-09T03:26:22;11.70;99.90
46364;DHT22;32071;49.036;9.344;2023-10-09T03:28:51;11.70;99.90
46364;DHT22;32071;49.036;9.344;2023-10-09T03:31:17;11.70;99.90
46364;DHT22;32071;49.036;9.344;2023-10-09T03:33:43;11.60;99.90
46364;DHT22;32071;49.036;9.344;2023-10-09T03:36:09;11.60;99.90
46364;DHT22;32071;49.036;9.344;2023-10-09T03:38:36;11.60;99.90
46364;DHT22;32071;49.036;9.344;2023-10-09T03:41:03;11.50;99.90
46364;DHT22;32071;49.036;9.344;2023-10-09T03:43:35;11.50;99.90
46364;DHT22;32071;49.036;9.344;2023-10-09T03:46:05;11.50;99.90
46364;DHT22;32071;49.036;9.344;2023-10-09T03:48:34;11.50;99.90
46364;DHT22;32071;49.036;9.344;2023-10-09T03:51:02;11.50;99.90
46364;DHT22;32071;49.036;9.344;2023-10-09T03:53:35;11.50;99.90
46364;DHT22;32071;49.036;9.344;2023-10-09T03:56:07;11.50;99.90
46364;DHT22;32071;49.036;9.344;2023-10-09T03:58:39;11.50;99.90
46364;DHT22;32071;49.036;9.344;2023-10-09T04:01:09;11.50;99.90
46364;DHT22;32071;49.036;9.344;2023-10-09T04:03:43;11.50;99.90
46364;DHT22;32071;49.036;9.344;2023-10-09T04:06:09;11.50;99.90
46364;DHT22;32071;49.036;9.344;2023-10-09T04:08:36;11.50;99.90
46364;DHT22;32071;49.036;9.344;2023-10-09T04:11:06;11.50;99.90
46364;DHT22;32071;49.036;9.344;2023-10-09T04:13:44;11.50;99.90
46364;DHT22;32071;49.036;9.344;2023-10-09T04:16:14;11.50;99.90
46364;DHT22;32071;49.036;9.344;2023-10-09T04:19:02;11.50;99.90
46364;DHT22;32071;49.036;9.344;2023-10-09T04:21:37;11.50;99.90
46364;DHT22;32071;49.036;9.344;2023-10-09T04:24:07;11.50;99.90
46364;DHT22;32071;49.036;9.344;2023-10-09T04:26:43;11.50;99.90
46364;DHT22;32071;49.036;9.344;2023-10-09T04:29:15;11.50;99.90
46364;DHT22;32071;49.036;9.344;2023-10-09T04:31:55;11.50;99.90
46364;DHT22;32071;49.036;9.344;2023-10-09T04:34:25;11.50;99.90
46364;DHT22;32071;49.036;9.344;2023-10-09T04:36:54;11.50;99.90
46364;DHT22;32071;49.036;9.344;2023-10-09T04:39:29;11.50;99.90
46364;DHT22;32071;49.036;9.344;2023-10-09T04:41:55;11.50;99.90
46364;DHT22;32071;49.036;9.344;2023-10-09T04:44:41;11.50;99.90
46364;DHT22;32071;49.036;9.344;2023-10-09T04:47:25;11.50;99.90
46364;DHT22;32071;49.036;9.344;2023-10-09T04:52:36;11.50;99.90
46364;DHT22;32071;49.036;9.344;2023-10-09T04:55:03;11.50;99.90
46364;DHT22;32071;49.036;9.344;2023-10-09T04:57:44;11.50;99.90
46364;DHT22;32071;49.036;9.344;2023-10-09T05:02:59;11.50;99.90
46364;DHT22;32071;49.036;9.344;2023-10-09T05:05:30;11.50;99.90
46364;DHT22;32071;49.036;9.344;2023-10-09T05:08:16;11.50;99.90
46364;DHT22;32071;49.036;9.344;2023-10-09T05:10:50;11.50;99.90
46364;DHT22;32071;49.036;9.344;2023-10-09T05:13:29;11.60;99.90
46364;DHT22;32071;49.036;9.344;2023-10-09T05:16:10;11.60;99.90
46364;DHT22;32071;49.036;9.344;2023-10-09T05:18:42;11.60;99.90
46364;DHT22;32071;49.036;9.344;2023-10-09T05:21:10;11.50;99.90
46364;DHT22;32071;49.036;9.344;2023-10-09T05:23:39;11.50;99.90
46364;DHT22;32071;49.036;9.344;2023-10-09T05:26:34;11.50;99.90
46364;DHT22;32071;49.036;9.344;2023-10-09T05:29:21;11.50;99.90
46364;DHT22;32071;49.036;9.344;2023-10-09T05:32:04;11.50;99.90
46364;DHT22;32071;49.036;9.344;2023-10-09T05:34:43;11.50;99.90
46364;DHT22;32071;49.036;9.344;2023-10-09T05:40:07;11.50;99.90
46364;DHT22;32071;49.036;9.344;2023-10-09T05:42:36;11.50;99.90
46364;DHT22;32071;49.036;9.344;2023-10-09T05:45:15;11.50;99.90
46364;DHT22;32071;49.036;9.344;2023-10-09T05:48:00;11.40;99.90
46364;DHT22;32071;49.036;9.344;2023-10-09T05:50:43;11.50;99.90
46364;DHT22;32071;49.036;9.344;2023-10-09T05:53:21;11.40;99.90
46364;DHT22;32071;49.036;9.344;2023-10-09T05:56:13;11.50;99.90
46364;DHT22;32071;49.036;9.344;2023-10-09T05:58:53;11.50;99.90
46364;DHT22;32071;49.036;9.344;2023-10-09T06:01:31;11.50;99.90
46364;DHT22;32071;49.036;9.344;2023-10-09T06:04:16;11.60;99.90
46364;DHT22;32071;49.036;9.344;2023-10-09T06:06:43;11.60;99.90
46364;DHT22;32071;49.036;9.344;2023-10-09T06:09:14;11.70;99.90
46364;DHT22;32071;49.036;9.344;2023-10-09T06:14:07;11.80;99.90
46364;DHT22;32071;49.036;9.344;2023-10-09T06:16:37;11.80;99.90
46364;DHT22;32071;49.036;9.344;2023-10-09T06:19:13;11.80;99.90
46364;DHT22;32071;49.036;9.344;2023-10-09T06:21:59;11.90;99.90
46364;DHT22;32071;49.036;9.344;2023-10-09T06:24:38;11.90;99.90
46364;DHT22;32071;49.036;9.344;2023-10-09T06:27:19;12.00;99.90
46364;DHT22;32071;49.036;9.344;2023-10-09T06:29:57;12.00;99.90
46364;DHT22;32071;49.036;9.344;2023-10-09T06:32:39;12.00;99.90
46364;DHT22;32071;49.036;9.344;2023-10-09T06:35:16;12.00;99.90
46364;DHT22;32071;49.036;9.344;2023-10-09T06:37:49;12.10;99.90
46364;DHT22;32071;49.036;9.344;2023-10-09T06:40:34;12.10;99.90
46364;DHT22;32071;49.036;9.344;2023-10-09T06:43:20;12.10;99.90
46364;DHT22;32071;49.036;9.344;2023-10-09T06:45:52;12.20;99.90
46364;DHT22;32071;49.036;9.344;2023-10-09T06:48:45;12.20;99.90
46364;DHT22;32071;49.036;9.344;2023-10-09T06:51:12;12.20;99.90
46364;DHT22;32071;49.036;9.344;2023-10-09T06:53:59;12.30;99.90
46364;DHT22;32071;49.036;9.344;2023-10-09T06:56:29;12.40;99.90
46364;DHT22;32071;49.036;9.344;2023-10-09T06:58:59;12.50;99.90
46364;DHT22;32071;49.036;9.344;2023-10-09T07:01:29;12.50;99.90
46364;DHT22;32071;49.036;9.344;2023-10-09T07:04:04;12.60;99.90
46364;DHT22;32071;49.036;9.344;2023-10-09T07:06:49;12.60;99.90
46364;DHT22;32071;49.036;9.344;2023-10-09T07:09:17;12.70;99.90
46364;DHT22;32071;49.036;9.344;2023-10-09T07:11:47;12.70;99.90
46364;DHT22;32071;49.036;9.344;2023-10-09T07:14:18;12.80;99.90
46364;DHT22;32071;49.036;9.344;2023-10-09T07:17:06;12.90;99.90
46364;DHT22;32071;49.036;9.344;2023-10-09T07:19:44;12.90;99.90
46364;DHT22;32071;49.036;9.344;2023-10-09T07:22:13;13.00;99.90
46364;DHT22;32071;49.036;9.344;2023-10-09T07:24:56;13.10;99.90
46364;DHT22;32071;49.036;9.344;2023-10-09T07:27:29;13.10;99.90
46364;DHT22;32071;49.036;9.344;2023-10-09T07:30:12;13.20;99.90
46364;DHT22;32071;49.036;9.344;2023-10-09T07:33:07;13.20;99.90
46364;DHT22;32071;49.036;9.344;2023-10-09T07:35:41;13.40;99.90
46364;DHT22;32071;49.036;9.344;2023-10-09T07:38:15;13.50;99.90
46364;DHT22;32071;49.036;9.344;2023-10-09T07:40:45;13.60;99.90
46364;DHT22;32071;49.036;9.344;2023-10-09T07:43:31;13.60;99.90
46364;DHT22;32071;49.036;9.344;2023-10-09T07:46:26;13.80;99.90
46364;DHT22;32071;49.036;9.344;2023-10-09T07:48:59;13.80;99.90
46364;DHT22;32071;49.036;9.344;2023-10-09T07:51:26;13.90;99.90
46364;DHT22;32071;49.036;9.344;2023-10-09T07:53:59;14.00;99.90
46364;DHT22;32071;49.036;9.344;2023-10-09T07:56:38;14.10;99.90
46364;DHT22;32071;49.036;9.344;2023-10-09T07:59:07;14.10;99.90
46364;DHT22;32071;49.036;9.344;2023-10-09T08:01:44;14.20;99.90
46364;DHT22;32071;49.036;9.344;2023-10-09T08:04:28;14.30;99.90
46364;DHT22;32071;49.036;9.344;2023-10-09T08:07:07;14.40;99.90
46364;DHT22;32071;49.036;9.344;2023-10-09T08:09:44;14.50;99.90
46364;DHT22;32071;49.036;9.344;2023-10-09T08:12:14;14.60;99.90
46364;DHT22;32071;49.036;9.344;2023-10-09T08:15:04;14.60;99.90
46364;DHT22;32071;49.036;9.344;2023-10-09T08:17:48;14.80;99.90
46364;DHT22;32071;49.036;9.344;2023-10-09T08:20:28;14.90;99.90
46364;DHT22;32071;49.036;9.344;2023-10-09T08:23:02;15.00;99.90
46364;DHT22;32071;49.036;9.344;2023-10-09T08:25:30;15.10;99.90
46364;DHT22;32071;49.036;9.344;2023-10-09T08:28:02;15.20;99.90
46364;DHT22;32071;49.036;9.344;2023-10-09T08:30:40;15.20;99.90
46364;DHT22;32071;49.036;9.344;2023-10-09T08:33:18;15.20;99.90
46364;DHT22;32071;49.036;9.344;2023-10-09T08:35:56;15.30;99.90
46364;DHT22;32071;49.036;9.344;2023-10-09T08:38:30;15.40;99.90
46364;DHT22;32071;49.036;9.344;2023-10-09T08:41:10;15.50;99.90
46364;DHT22;32071;49.036;9.344;2023-10-09T08:43:50;15.60;99.90
46364;DHT22;32071;49.036;9.344;2023-10-09T08:46:25;15.80;99.90
46364;DHT22;32071;49.036;9.344;2023-10-09T08:48:57;15.90;99.90
46364;DHT22;32071;49.036;9.344;2023-10-09T08:51:25;16.00;99.90
46364;DHT22;32071;49.036;9.344;2023-10-09T08:53:51;16.00;99.90
46364;DHT22;32071;49.036;9.344;2023-10-09T08:56:20;16.10;99.90
46364;DHT22;32071;49.036;9.344;2023-10-09T08:58:56;16.20;99.90
46364;DHT22;32071;49.036;9.344;2023-10-09T09:01:22;16.30;99.90
46364;DHT22;32071;49.036;9.344;2023-10-09T09:03:50;16.40;99.90
46364;DHT22;32071;49.036;9.344;2023-10-09T09:06:18;16.60;99.90
46364;DHT22;32071;49.036;9.344;2023-10-09T09:08:45;16.60;99.90
46364;DHT22;32071;49.036;9.344;2023-10-09T09:11:17;16.70;99.90
46364;DHT22;32071;49.036;9.344;2023-10-09T09:14:00;16.90;99.90
46364;DHT22;32071;49.036;9.344;2023-10-09T09:16:30;17.10;99.90
46364;DHT22;32071;49.036;9.344;2023-10-09T09:18:59;17.20;99.90
46364;DHT22;32071;49.036;9.344;2023-10-09T09:21:34;17.40;99.90
46364;DHT22;32071;49.036;9.344;2023-10-09T09:24:12;17.60;99.90
46364;DHT22;32071;49.036;9.344;2023-10-09T09:26:47;17.80;99.90
46364;DHT22;32071;49.036;9.344;2023-10-09T09:32:02;18.20;99.90
46364;DHT22;32071;49.036;9.344;2023-10-09T09:34:45;18.30;99.90
46364;DHT22;32071;49.036;9.344;2023-10-09T09:37:21;18.20;99.90
46364;DHT22;32071;49.036;9.344;2023-10-09T09:39:47;18.40;99.90
46364;DHT22;32071;49.036;9.344;2023-10-09T09:42:17;18.60;99.90
46364;DHT22;32071;49.036;9.344;2023-10-09T09:44:51;18.80;99.90
46364;DHT22;32071;49.036;9.344;2023-10-09T09:47:16;19.00;99.90
46364;DHT22;32071;49.036;9.344;2023-10-09T09:49:50;19.20;99.90
46364;DHT22;32071;49.036;9.344;2023-10-09T09:52:17;19.50;99.90
46364;DHT22;32071;49.036;9.344;2023-10-09T09:54:43;19.70;99.90
46364;DHT22;32071;49.036;9.344;2023-10-09T09:57:12;19.80;99.90
46364;DHT22;32071;49.036;9.344;2023-10-09T09:59:40;19.90;99.90
46364;DHT22;32071;49.036;9.344;2023-10-09T10:02:08;20.00;99.90
46364;DHT22;32071;49.036;9.344;2023-10-09T10:04:39;20.00;99.90
46364;DHT22;32071;49.036;9.344;2023-10-09T10:07:09;20.00;99.90
46364;DHT22;32071;49.036;9.344;2023-10-09T10:09:39;20.00;99.90
46364;DHT22;32071;49.036;9.344;2023-10-09T10:12:09;20.00;99.90
46364;DHT22;32071;49.036;9.344;2023-10-09T10:14:57;20.10;99.90
46364;DHT22;32071;49.036;9.344;2023-10-09T10:20:25;20.00;99.90
46364;DHT22;32071;49.036;9.344;2023-10-09T10:23:16;20.10;99.90
46364;DHT22;32071;49.036;9.344;2023-10-09T10:25:43;20.20;99.90
46364;DHT22;32071;49.036;9.344;2023-10-09T10:28:23;20.20;99.90
46364;DHT22;32071;49.036;9.344;2023-10-09T10:31:10;20.10;99.90
46364;DHT22;32071;49.036;9.344;2023-10-09T10:36:21;19.90;99.90
46364;DHT22;32071;49.036;9.344;2023-10-09T10:39:21;19.90;99.90
46364;DHT22;32071;49.036;9.344;2023-10-09T10:42:01;19.90;99.90
46364;DHT22;32071;49.036;9.344;2023-10-09T10:44:31;19.90;99.90
46364;DHT22;32071;49.036;9.344;2023-10-09T10:47:05;20.00;99.90
46364;DHT22;32071;49.036;9.344;2023-10-09T10:49:43;20.20;99.90
46364;DHT22;32071;49.036;9.344;2023-10-09T10:52:22;20.30;99.90
46364;DHT22;32071;49.036;9.344;2023-10-09T10:55:14;20.50;99.90
46364;DHT22;32071;49.036;9.344;2023-10-09T10:58:03;20.60;99.90
46364;DHT22;32071;49.036;9.344;2023-10-09T11:00:40;20.80;99.90
46364;DHT22;32071;49.036;9.344;2023-10-09T11:03:25;20.90;99.90
46364;DHT22;32071;49.036;9.344;2023-10-09T11:06:27;20.90;99.90
46364;DHT22;32071;49.036;9.344;2023-10-09T11:09:09;20.90;99.90
46364;DHT22;32071;49.036;9.344;2023-10-09T11:11:50;20.80;99.90
46364;DHT22;32071;49.036;9.344;2023-10-09T11:14:46;20.70;99.90
46364;DHT22;32071;49.036;9.344;2023-10-09T11:17:32;20.40;99.90
46364;DHT22;32071;49.036;9.344;2023-10-09T11:19:58;20.30;99.90
46364;DHT22;32071;49.036;9.344;2023-10-09T11:22:44;20.10;99.90
46364;DHT22;32071;49.036;9.344;2023-10-09T11:25:30;20.00;99.90
46364;DHT22;32071;49.036;9.344;2023-10-09T11:27:56;20.00;99.90
46364;DHT22;32071;49.036;9.344;2023-10-09T11:30:31;19.90;99.90
46364;DHT22;32071;49.036;9.344;2023-10-09T11:33:07;19.80;99.90
46364;DHT22;32071;49.036;9.344;2023-10-09T11:35:40;19.60;99.90
46364;DHT22;32071;49.036;9.344;2023-10-09T11:38:08;19.60;99.90
46364;DHT22;32071;49.036;9.344;2023-10-09T11:40:47;19.70;99.90
46364;DHT22;32071;49.036;9.344;2023-10-09T11:43:48;19.70;99.90
46364;DHT22;32071;49.036;9.344;2023-10-09T11:46:17;19.90;99.90
46364;DHT22;32071;49.036;9.344;2023-10-09T11:49:06;20.10;99.90
46364;DHT22;32071;49.036;9.344;2023-10-09T11:51:47;20.30;99.90
46364;DHT22;32071;49.036;9.344;2023-10-09T11:54:32;20.30;99.90
46364;DHT22;32071;49.036;9.344;2023-10-09T11:56:59;20.40;99.90
46364;DHT22;32071;49.036;9.344;2023-10-09T11:59:28;20.50;99.90
46364;DHT22;32071;49.036;9.344;2023-10-09T12:02:00;20.70;99.90
46364;DHT22;32071;49.036;9.344;2023-10-09T12:04:26;20.80;99.90
46364;DHT22;32071;49.036;9.344;2023-10-09T12:06:56;20.80;99.90
46364;DHT22;32071;49.036;9.344;2023-10-09T12:09:34;20.80;99.90
46364;DHT22;32071;49.036;9.344;2023-10-09T12:12:04;20.80;99.90
46364;DHT22;32071;49.036;9.344;2023-10-09T12:14:31;21.00;99.90
46364;DHT22;32071;49.036;9.344;2023-10-09T12:17:04;21.10;99.90
46364;DHT22;32071;49.036;9.344;2023-10-09T12:19:37;21.20;99.90
46364;DHT22;32071;49.036;9.344;2023-10-09T12:22:05;21.30;99.90
46364;DHT22;32071;49.036;9.344;2023-10-09T12:24:32;21.30;99.90
46364;DHT22;32071;49.036;9.344;2023-10-09T12:26:59;21.30;99.90
46364;DHT22;32071;49.036;9.344;2023-10-09T12:29:25;21.50;99.90
46364;DHT22;32071;49.036;9.344;2023-10-09T12:31:58;21.50;99.90
46364;DHT22;32071;49.036;9.344;2023-10-09T12:34:27;21.60;99.90
46364;DHT22;32071;49.036;9.344;2023-10-09T12:36:56;21.80;99.90
46364;DHT22;32071;49.036;9.344;2023-10-09T12:39:26;22.10;99.90
46364;DHT22;32071;49.036;9.344;2023-10-09T12:41:58;22.30;99.90
46364;DHT22;32071;49.036;9.344;2023-10-09T12:44:35;22.60;99.90
46364;DHT22;32071;49.036;9.344;2023-10-09T12:47:08;22.80;99.90
46364;DHT22;32071;49.036;9.344;2023-10-09T12:49:37;22.80;99.90
46364;DHT22;32071;49.036;9.344;2023-10-09T12:52:09;22.50;99.90
46364;DHT22;32071;49.036;9.344;2023-10-09T12:54:44;22.50;99.90
46364;DHT22;32071;49.036;9.344;2023-10-09T12:57:13;22.60;99.90
46364;DHT22;32071;49.036;9.344;2023-10-09T12:59:40;22.70;99.90
46364;DHT22;32071;49.036;9.344;2023-10-09T13:02:16;23.00;99.90
46364;DHT22;32071;49.036;9.344;2023-10-09T13:04:54;23.20;99.90
46364;DHT22;32071;49.036;9.344;2023-10-09T13:07:20;23.10;99.90
46364;DHT22;32071;49.036;9.344;2023-10-09T13:09:48;23.20;99.90
46364;DHT22;32071;49.036;9.344;2023-10-09T13:12:36;23.30;99.90
46364;DHT22;32071;49.036;9.344;2023-10-09T13:15:08;23.30;99.90
46364;DHT22;32071;49.036;9.344;2023-10-09T13:17:38;23.40;99.90
46364;DHT22;32071;49.036;9.344;2023-10-09T13:20:04;23.40;99.90
46364;DHT22;32071;49.036;9.344;2023-10-09T13:22:40;23.20;99.90
46364;DHT22;32071;49.036;9.344;2023-10-09T13:25:07;23.10;99.90
46364;DHT22;32071;49.036;9.344;2023-10-09T13:27:40;22.90;99.90
46364;DHT22;32071;49.036;9.344;2023-10-09T13:30:06;22.60;99.90
46364;DHT22;32071;49.036;9.344;2023-10-09T13:32:33;22.30;99.90
46364;DHT22;32071;49.036;9.344;2023-10-09T13:35:01;22.20;99.90
46364;DHT22;32071;49.036;9.344;2023-10-09T13:37:28;22.20;99.90
46364;DHT22;32071;49.036;9.344;2023-10-09T13:39:56;22.20;99.90
46364;DHT22;32071;49.036;9.344;2023-10-09T13:42:22;22.20;99.90
46364;DHT22;32071;49.036;9.344;2023-10-09T13:44:51;22.20;99.90
46364;DHT22;32071;49.036;9.344;2023-10-09T13:47:19;22.10;99.90
46364;DHT22;32071;49.036;9.344;2023-10-09T13:49:46;22.20;99.90
46364;DHT22;32071;49.036;9.344;2023-10-09T13:52:16;22.30;99.90
46364;DHT22;32071;49.036;9.344;2023-10-09T13:54:44;22.30;99.90
46364;DHT22;32071;49.036;9.344;2023-10-09T13:57:13;22.30;99.90
46364;DHT22;32071;49.036;9.344;2023-10-09T13:59:41;22.40;99.90
46364;DHT22;32071;49.036;9.344;2023-10-09T14:02:17;22.40;99.90
46364;DHT22;32071;49.036;9.344;2023-10-09T14:04:43;22.40;99.90
46364;DHT22;32071;49.036;9.344;2023-10-09T14:07:09;22.50;99.90
46364;DHT22;32071;49.036;9.344;2023-10-09T14:09:35;22.60;99.90
46364;DHT22;32071;49.036;9.344;2023-10-09T14:12:06;22.80;99.90
46364;DHT22;32071;49.036;9.344;2023-10-09T14:14:39;22.90;99.90
46364;DHT22;32071;49.036;9.344;2023-10-09T14:17:21;23.00;99.90
46364;DHT22;32071;49.036;9.344;2023-10-09T14:19:51;23.00;99.90
46364;DHT22;32071;49.036;9.344;2023-10-09T14:22:19;23.10;99.90
46364;DHT22;32071;49.036;9.344;2023-10-09T14:24:46;23.00;99.90
46364;DHT22;32071;49.036;9.344;2023-10-09T14:27:12;22.90;99.90
46364;DHT22;32071;49.036;9.344;2023-10-09T14:29:48;22.80;99.90
46364;DHT22;32071;49.036;9.344;2023-10-09T14:32:14;22.80;99.90
46364;DHT22;32071;49.036;9.344;2023-10-09T14:34:40;22.80;99.90
46364;DHT22;32071;49.036;9.344;2023-10-09T14:37:15;22.80;99.90
46364;DHT22;32071;49.036;9.344;2023-10-09T14:39:42;22.80;99.90
46364;DHT22;32071;49.036;9.344;2023-10-09T14:42:08;22.90;99.90
46364;DHT22;32071;49.036;9.344;2023-10-09T14:44:37;23.00;99.90
46364;DHT22;32071;49.036;9.344;2023-10-09T14:47:06;23.10;99.90
46364;DHT22;32071;49.036;9.344;2023-10-09T14:49:32;23.20;99.90
46364;DHT22;32071;49.036;9.344;2023-10-09T14:52:03;23.30;99.90
46364;DHT22;32071;49.036;9.344;2023-10-09T14:54:32;23.40;99.90
46364;DHT22;32071;49.036;9.344;2023-10-09T14:56:57;23.40;99.90
46364;DHT22;32071;49.036;9.344;2023-10-09T14:59:23;23.20;99.90
46364;DHT22;32071;49.036;9.344;2023-10-09T15:01:48;23.00;99.90
46364;DHT22;32071;49.036;9.344;2023-10-09T15:04:15;22.80;99.90
46364;DHT22;32071;49.036;9.344;2023-10-09T15:06:41;22.60;99.90
46364;DHT22;32071;49.036;9.344;2023-10-09T15:09:07;22.50;99.90
46364;DHT22;32071;49.036;9.344;2023-10-09T15:11:47;22.30;99.90
46364;DHT22;32071;49.036;9.344;2023-10-09T15:14:14;22.20;99.90
46364;DHT22;32071;49.036;9.344;2023-10-09T15:16:40;22.00;99.90
46364;DHT22;32071;49.036;9.344;2023-10-09T15:19:08;21.90;99.90
46364;DHT22;32071;49.036;9.344;2023-10-09T15:21:38;21.80;99.90
46364;DHT22;32071;49.036;9.344;2023-10-09T15:24:13;21.70;99.90
46364;DHT22;32071;49.036;9.344;2023-10-09T15:26:48;21.70;99.90
46364;DHT22;32071;49.036;9.344;2023-10-09T15:29:24;21.70;99.90
46364;DHT22;32071;49.036;9.344;2023-10-09T15:32:01;21.70;99.90
46364;DHT22;32071;49.036;9.344;2023-10-09T15:34:36;21.70;99.90
46364;DHT22;32071;49.036;9.344;2023-10-09T15:37:02;21.60;99.90
46364;DHT22;32071;49.036;9.344;2023-10-09T15:39:29;21.50;99.90
46364;DHT22;32071;49.036;9.344;2023-10-09T15:41:56;21.40;99.90
46364;DHT22;32071;49.036;9.344;2023-10-09T15:44:21;21.40;99.90
46364;DHT22;32071;49.036;9.344;2023-10-09T15:46:50;21.30;99.90
46364;DHT22;32071;49.036;9.344;2023-10-09T15:49:16;21.20;99.90
46364;DHT22;32071;49.036;9.344;2023-10-09T15:51:41;21.00;99.90
46364;DHT22;32071;49.036;9.344;2023-10-09T15:54:12;20.90;99.90
46364;DHT22;32071;49.036;9.344;2023-10-09T15:56:41;20.90;99.90
46364;DHT22;32071;49.036;9.344;2023-10-09T15:59:07;20.80;99.90
46364;DHT22;32071;49.036;9.344;2023-10-09T16:01:33;20.60;99.90
46364;DHT22;32071;49.036;9.344;2023-10-09T16:04:01;20.50;99.90
46364;DHT22;32071;49.036;9.344;2023-10-09T16:06:26;20.30;99.90
46364;DHT22;32071;49.036;9.344;2023-10-09T16:08:56;20.20;99.90
46364;DHT22;32071;49.036;9.344;2023-10-09T16:11:22;20.00;99.90
46364;DHT22;32071;49.036;9.344;2023-10-09T16:13:51;19.80;99.90
46364;DHT22;32071;49.036;9.344;2023-10-09T16:16:28;19.70;99.90
46364;DHT22;32071;49.036;9.344;2023-10-09T16:18:55;19.50;99.90
46364;DHT22;32071;49.036;9.344;2023-10-09T16:21:22;19.30;99.90
46364;DHT22;32071;49.036;9.344;2023-10-09T16:23:48;19.20;99.90
46364;DHT22;32071;49.036;9.344;2023-10-09T16:26:15;19.00;99.90
46364;DHT22;32071;49.036;9.344;2023-10-09T16:28:42;18.90;99.90